Disclaimer

Please do not use the information listed here in-flight or in-navigation, as they are not provided to us by the airports but are provided by volunteers, so they might be outdated.

Search


Regions


Airport information page

Radio informations:
Tower (TWR) - 118.7 MHz
GND/CLNC DEL - 121.7 MHz
Automatic Terminal Information Service (ATIS) - 133.55 MHz

Airport informations:
Latitude: 53° 07' 10.99" N
Longitude: 006° 34' 46.00" E
Elevation: 17 feet - 5 meters
Operating hours: Remarks
Operating agency: Civil government, landing fees and diplomatic clearance may be required
Timezone: UTC+1(+2DT) - Last Sunday in March to last Sunday in October
Fuel: N/A

Runway information:
01/19 - 4922 x 148 feet< - >1500 x 45 meters
05/23 - 5906 x 148 feet< - >1800 x 45 meters

Recent METARs:
EHGG 192055Z AUTO 06015KT 9999 NSC 04/01 Q1020 NOSIG
EHGG 192125Z AUTO 07014KT 040V100 9999 NSC 04/01 Q1020 NOSIG
EHGG 192155Z AUTO 07014KT 9999 FEW021 04/00 Q1020 NOSIG

Airport on the map: